sensor_id;sensor_type;location;lat;lon;timestamp;temperature;humidity
41469;DHT22;27206;47.032;15.484;2023-08-01T00:02:20;18.60;99.90
41469;DHT22;27206;47.032;15.484;2023-08-01T00:04:46;18.50;99.90
41469;DHT22;27206;47.032;15.484;2023-08-01T00:07:11;18.50;99.90
41469;DHT22;27206;47.032;15.484;2023-08-01T00:09:37;18.40;99.90
41469;DHT22;27206;47.032;15.484;2023-08-01T00:12:03;18.40;99.90
41469;DHT22;27206;47.032;15.484;2023-08-01T00:14:28;18.40;99.90
41469;DHT22;27206;47.032;15.484;2023-08-01T00:16:54;18.50;99.90
41469;DHT22;27206;47.032;15.484;2023-08-01T00:19:20;18.40;99.90
41469;DHT22;27206;47.032;15.484;2023-08-01T00:21:45;18.40;99.90
41469;DHT22;27206;47.032;15.484;2023-08-01T00:24:12;18.40;99.90
41469;DHT22;27206;47.032;15.484;2023-08-01T00:26:37;18.30;99.90
41469;DHT22;27206;47.032;15.484;2023-08-01T00:29:03;18.30;99.90
41469;DHT22;27206;47.032;15.484;2023-08-01T00:31:29;18.10;99.90
41469;DHT22;27206;47.032;15.484;2023-08-01T00:33:54;18.20;99.90
41469;DHT22;27206;47.032;15.484;2023-08-01T00:36:20;18.20;99.90
41469;DHT22;27206;47.032;15.484;2023-08-01T00:38:45;18.00;99.90
41469;DHT22;27206;47.032;15.484;2023-08-01T00:41:12;18.00;99.90
41469;DHT22;27206;47.032;15.484;2023-08-01T00:43:38;18.00;99.90
41469;DHT22;27206;47.032;15.484;2023-08-01T00:46:05;18.10;99.90
41469;DHT22;27206;47.032;15.484;2023-08-01T00:48:32;18.10;99.90
41469;DHT22;27206;47.032;15.484;2023-08-01T00:50:59;18.00;99.90
41469;DHT22;27206;47.032;15.484;2023-08-01T00:53:25;18.00;99.90
41469;DHT22;27206;47.032;15.484;2023-08-01T00:55:54;18.00;99.90
41469;DHT22;27206;47.032;15.484;2023-08-01T00:58:20;18.00;99.90
41469;DHT22;27206;47.032;15.484;2023-08-01T01:00:46;17.90;99.90
41469;DHT22;27206;47.032;15.484;2023-08-01T01:03:13;17.90;99.90
41469;DHT22;27206;47.032;15.484;2023-08-01T01:06:01;17.80;99.90
41469;DHT22;27206;47.032;15.484;2023-08-01T01:08:32;17.90;99.90
41469;DHT22;27206;47.032;15.484;2023-08-01T01:10:57;17.90;99.90
41469;DHT22;27206;47.032;15.484;2023-08-01T01:13:23;17.80;99.90
41469;DHT22;27206;47.032;15.484;2023-08-01T01:15:49;17.80;99.90
41469;DHT22;27206;47.032;15.484;2023-08-01T01:18:14;17.80;99.90
41469;DHT22;27206;47.032;15.484;2023-08-01T01:20:40;17.70;99.90
41469;DHT22;27206;47.032;15.484;2023-08-01T01:23:07;17.70;99.90
41469;DHT22;27206;47.032;15.484;2023-08-01T01:25:34;17.70;99.90
41469;DHT22;27206;47.032;15.484;2023-08-01T01:28:00;17.60;99.90
41469;DHT22;27206;47.032;15.484;2023-08-01T01:30:29;17.60;99.90
41469;DHT22;27206;47.032;15.484;2023-08-01T01:32:55;17.50;99.90
41469;DHT22;27206;47.032;15.484;2023-08-01T01:35:21;17.50;99.90
41469;DHT22;27206;47.032;15.484;2023-08-01T01:37:47;17.60;99.90
41469;DHT22;27206;47.032;15.484;2023-08-01T01:40:12;17.60;99.90
41469;DHT22;27206;47.032;15.484;2023-08-01T01:42:38;17.60;99.90
41469;DHT22;27206;47.032;15.484;2023-08-01T01:45:04;17.60;99.90
41469;DHT22;27206;47.032;15.484;2023-08-01T01:47:30;17.50;99.90
41469;DHT22;27206;47.032;15.484;2023-08-01T01:49:55;17.50;99.90
41469;DHT22;27206;47.032;15.484;2023-08-01T01:52:21;17.40;99.90
41469;DHT22;27206;47.032;15.484;2023-08-01T01:54:47;17.50;99.90
41469;DHT22;27206;47.032;15.484;2023-08-01T01:57:12;17.50;99.90
41469;DHT22;27206;47.032;15.484;2023-08-01T01:59:38;17.40;99.90
41469;DHT22;27206;47.032;15.484;2023-08-01T02:02:04;17.40;99.90
41469;DHT22;27206;47.032;15.484;2023-08-01T02:04:30;17.40;99.90
41469;DHT22;27206;47.032;15.484;2023-08-01T02:06:55;17.30;99.90
41469;DHT22;27206;47.032;15.484;2023-08-01T02:09:21;17.20;99.90
41469;DHT22;27206;47.032;15.484;2023-08-01T02:11:47;17.30;99.90
41469;DHT22;27206;47.032;15.484;2023-08-01T02:14:13;17.40;99.90
41469;DHT22;27206;47.032;15.484;2023-08-01T02:16:39;17.40;99.90
41469;DHT22;27206;47.032;15.484;2023-08-01T02:19:04;17.30;99.90
41469;DHT22;27206;47.032;15.484;2023-08-01T02:21:30;17.30;99.90
41469;DHT22;27206;47.032;15.484;2023-08-01T02:23:56;17.30;99.90
41469;DHT22;27206;47.032;15.484;2023-08-01T02:26:21;17.30;99.90
41469;DHT22;27206;47.032;15.484;2023-08-01T02:28:49;17.40;99.90
41469;DHT22;27206;47.032;15.484;2023-08-01T02:31:15;17.40;99.90
41469;DHT22;27206;47.032;15.484;2023-08-01T02:33:41;17.30;99.90
41469;DHT22;27206;47.032;15.484;2023-08-01T02:36:07;17.20;99.90
41469;DHT22;27206;47.032;15.484;2023-08-01T02:38:32;17.10;99.90
41469;DHT22;27206;47.032;15.484;2023-08-01T02:40:58;17.10;99.90
41469;DHT22;27206;47.032;15.484;2023-08-01T02:43:24;17.10;99.90
41469;DHT22;27206;47.032;15.484;2023-08-01T02:45:49;17.20;99.90
41469;DHT22;27206;47.032;15.484;2023-08-01T02:48:15;17.20;99.90
41469;DHT22;27206;47.032;15.484;2023-08-01T02:50:41;17.30;99.90
41469;DHT22;27206;47.032;15.484;2023-08-01T02:53:07;17.30;99.90
41469;DHT22;27206;47.032;15.484;2023-08-01T02:55:32;17.30;99.90
41469;DHT22;27206;47.032;15.484;2023-08-01T02:57:58;17.20;99.90
41469;DHT22;27206;47.032;15.484;2023-08-01T03:00:24;17.20;99.90
41469;DHT22;27206;47.032;15.484;2023-08-01T03:02:51;17.20;99.90
41469;DHT22;27206;47.032;15.484;2023-08-01T03:05:16;17.20;99.90
41469;DHT22;27206;47.032;15.484;2023-08-01T03:07:42;17.10;99.90
41469;DHT22;27206;47.032;15.484;2023-08-01T03:10:08;17.00;99.90
41469;DHT22;27206;47.032;15.484;2023-08-01T03:12:34;17.00;99.90
41469;DHT22;27206;47.032;15.484;2023-08-01T03:15:00;17.00;99.90
41469;DHT22;27206;47.032;15.484;2023-08-01T03:17:26;17.00;99.90
41469;DHT22;27206;47.032;15.484;2023-08-01T03:19:52;17.10;99.90
41469;DHT22;27206;47.032;15.484;2023-08-01T03:22:18;17.10;99.90
41469;DHT22;27206;47.032;15.484;2023-08-01T03:24:43;17.20;99.90
41469;DHT22;27206;47.032;15.484;2023-08-01T03:27:09;17.20;99.90
41469;DHT22;27206;47.032;15.484;2023-08-01T03:29:35;17.30;99.90
41469;DHT22;27206;47.032;15.484;2023-08-01T03:32:00;17.30;99.90
41469;DHT22;27206;47.032;15.484;2023-08-01T03:34:26;17.20;99.90
41469;DHT22;27206;47.032;15.484;2023-08-01T03:36:52;17.10;99.90
41469;DHT22;27206;47.032;15.484;2023-08-01T03:39:18;17.00;99.90
41469;DHT22;27206;47.032;15.484;2023-08-01T03:41:43;17.00;99.90
41469;DHT22;27206;47.032;15.484;2023-08-01T03:44:09;16.90;99.90
41469;DHT22;27206;47.032;15.484;2023-08-01T03:46:34;16.90;99.90
41469;DHT22;27206;47.032;15.484;2023-08-01T03:49:00;16.80;99.90
41469;DHT22;27206;47.032;15.484;2023-08-01T03:51:26;16.90;99.90
41469;DHT22;27206;47.032;15.484;2023-08-01T03:53:51;16.90;99.90
41469;DHT22;27206;47.032;15.484;2023-08-01T03:56:17;16.90;99.90
41469;DHT22;27206;47.032;15.484;2023-08-01T03:58:42;17.40;99.90
41469;DHT22;27206;47.032;15.484;2023-08-01T04:01:08;17.90;99.90
41469;DHT22;27206;47.032;15.484;2023-08-01T04:03:34;18.00;99.90
41469;DHT22;27206;47.032;15.484;2023-08-01T04:05:59;17.90;99.90
41469;DHT22;27206;47.032;15.484;2023-08-01T04:08:25;17.60;99.90
41469;DHT22;27206;47.032;15.484;2023-08-01T04:10:51;17.30;99.90
41469;DHT22;27206;47.032;15.484;2023-08-01T04:13:16;17.20;99.90
41469;DHT22;27206;47.032;15.484;2023-08-01T04:15:42;17.20;99.90
41469;DHT22;27206;47.032;15.484;2023-08-01T04:18:08;17.20;99.90
41469;DHT22;27206;47.032;15.484;2023-08-01T04:20:33;17.10;99.90
41469;DHT22;27206;47.032;15.484;2023-08-01T04:22:59;17.20;99.90
41469;DHT22;27206;47.032;15.484;2023-08-01T04:25:25;17.20;99.90
41469;DHT22;27206;47.032;15.484;2023-08-01T04:27:52;17.30;99.90
41469;DHT22;27206;47.032;15.484;2023-08-01T04:30:18;17.30;99.90
41469;DHT22;27206;47.032;15.484;2023-08-01T04:32:43;17.30;99.90
41469;DHT22;27206;47.032;15.484;2023-08-01T04:35:09;17.40;99.90
41469;DHT22;27206;47.032;15.484;2023-08-01T04:37:35;17.40;99.90
41469;DHT22;27206;47.032;15.484;2023-08-01T04:40:00;17.50;99.90
41469;DHT22;27206;47.032;15.484;2023-08-01T04:42:26;17.40;99.90
41469;DHT22;27206;47.032;15.484;2023-08-01T04:44:52;17.50;99.90
41469;DHT22;27206;47.032;15.484;2023-08-01T04:47:19;17.60;99.90
41469;DHT22;27206;47.032;15.484;2023-08-01T04:49:44;17.70;99.90
41469;DHT22;27206;47.032;15.484;2023-08-01T04:52:10;17.70;99.90
41469;DHT22;27206;47.032;15.484;2023-08-01T04:54:36;17.90;99.90
41469;DHT22;27206;47.032;15.484;2023-08-01T04:57:01;17.90;99.90
41469;DHT22;27206;47.032;15.484;2023-08-01T04:59:27;18.00;99.90
41469;DHT22;27206;47.032;15.484;2023-08-01T05:01:53;18.00;99.90
41469;DHT22;27206;47.032;15.484;2023-08-01T05:04:18;18.10;99.90
41469;DHT22;27206;47.032;15.484;2023-08-01T05:06:44;18.10;99.90
41469;DHT22;27206;47.032;15.484;2023-08-01T05:09:09;18.20;99.90
41469;DHT22;27206;47.032;15.484;2023-08-01T05:11:35;18.20;99.90
41469;DHT22;27206;47.032;15.484;2023-08-01T05:14:01;18.30;99.90
41469;DHT22;27206;47.032;15.484;2023-08-01T05:16:26;18.30;99.90
41469;DHT22;27206;47.032;15.484;2023-08-01T05:18:52;18.30;99.90
41469;DHT22;27206;47.032;15.484;2023-08-01T05:21:17;18.40;99.90
41469;DHT22;27206;47.032;15.484;2023-08-01T05:23:43;18.50;99.90
41469;DHT22;27206;47.032;15.484;2023-08-01T05:26:09;18.50;99.90
41469;DHT22;27206;47.032;15.484;2023-08-01T05:28:34;18.50;99.90
41469;DHT22;27206;47.032;15.484;2023-08-01T05:31:00;18.60;99.90
41469;DHT22;27206;47.032;15.484;2023-08-01T05:33:25;18.70;99.90
41469;DHT22;27206;47.032;15.484;2023-08-01T05:35:51;18.80;99.90
41469;DHT22;27206;47.032;15.484;2023-08-01T05:38:17;18.80;99.90
41469;DHT22;27206;47.032;15.484;2023-08-01T05:40:42;18.90;99.90
41469;DHT22;27206;47.032;15.484;2023-08-01T05:43:08;18.90;99.90
41469;DHT22;27206;47.032;15.484;2023-08-01T05:45:36;19.10;99.90
41469;DHT22;27206;47.032;15.484;2023-08-01T05:48:02;19.00;99.90
41469;DHT22;27206;47.032;15.484;2023-08-01T05:50:28;19.10;99.90
41469;DHT22;27206;47.032;15.484;2023-08-01T05:52:54;19.10;99.90
41469;DHT22;27206;47.032;15.484;2023-08-01T05:55:20;19.20;99.90
41469;DHT22;27206;47.032;15.484;2023-08-01T05:57:46;19.30;99.90
41469;DHT22;27206;47.032;15.484;2023-08-01T06:00:14;19.40;99.90
41469;DHT22;27206;47.032;15.484;2023-08-01T06:02:40;19.50;99.90
41469;DHT22;27206;47.032;15.484;2023-08-01T06:05:06;19.50;99.90
41469;DHT22;27206;47.032;15.484;2023-08-01T06:07:32;19.60;99.90
41469;DHT22;27206;47.032;15.484;2023-08-01T06:09:57;19.60;99.90
41469;DHT22;27206;47.032;15.484;2023-08-01T06:12:23;19.70;99.90
41469;DHT22;27206;47.032;15.484;2023-08-01T06:14:48;19.70;99.90
41469;DHT22;27206;47.032;15.484;2023-08-01T06:17:14;19.60;99.90
41469;DHT22;27206;47.032;15.484;2023-08-01T06:19:41;19.60;99.90
41469;DHT22;27206;47.032;15.484;2023-08-01T06:22:07;19.70;99.90
41469;DHT22;27206;47.032;15.484;2023-08-01T06:24:32;19.90;99.90
41469;DHT22;27206;47.032;15.484;2023-08-01T06:26:58;20.00;99.90
41469;DHT22;27206;47.032;15.484;2023-08-01T06:29:23;20.10;99.90
41469;DHT22;27206;47.032;15.484;2023-08-01T06:31:50;20.30;99.90
41469;DHT22;27206;47.032;15.484;2023-08-01T06:34:16;20.40;99.90
41469;DHT22;27206;47.032;15.484;2023-08-01T06:36:41;20.60;99.90
41469;DHT22;27206;47.032;15.484;2023-08-01T06:39:07;20.50;99.90
41469;DHT22;27206;47.032;15.484;2023-08-01T06:41:33;20.60;99.90
41469;DHT22;27206;47.032;15.484;2023-08-01T06:43:59;20.70;99.90
41469;DHT22;27206;47.032;15.484;2023-08-01T06:46:24;20.70;99.90
41469;DHT22;27206;47.032;15.484;2023-08-01T06:48:50;20.90;99.90
41469;DHT22;27206;47.032;15.484;2023-08-01T06:51:15;21.00;99.90
41469;DHT22;27206;47.032;15.484;2023-08-01T06:53:41;20.90;99.90
41469;DHT22;27206;47.032;15.484;2023-08-01T06:56:07;21.00;99.90
41469;DHT22;27206;47.032;15.484;2023-08-01T06:58:33;21.00;99.90
41469;DHT22;27206;47.032;15.484;2023-08-01T07:00:59;20.90;99.90
41469;DHT22;27206;47.032;15.484;2023-08-01T07:03:24;21.00;99.90
41469;DHT22;27206;47.032;15.484;2023-08-01T07:05:50;21.00;99.90
41469;DHT22;27206;47.032;15.484;2023-08-01T07:08:15;21.10;99.90
41469;DHT22;27206;47.032;15.484;2023-08-01T07:10:41;21.10;99.90
41469;DHT22;27206;47.032;15.484;2023-08-01T07:13:07;21.10;99.90
41469;DHT22;27206;47.032;15.484;2023-08-01T07:15:33;21.30;99.90
41469;DHT22;27206;47.032;15.484;2023-08-01T07:17:59;21.40;99.90
41469;DHT22;27206;47.032;15.484;2023-08-01T07:20:25;21.40;99.90
41469;DHT22;27206;47.032;15.484;2023-08-01T07:22:51;21.50;99.90
41469;DHT22;27206;47.032;15.484;2023-08-01T07:25:17;21.60;99.90
41469;DHT22;27206;47.032;15.484;2023-08-01T07:27:44;21.70;99.90
41469;DHT22;27206;47.032;15.484;2023-08-01T07:30:10;21.80;99.90
41469;DHT22;27206;47.032;15.484;2023-08-01T07:32:36;21.90;99.90
41469;DHT22;27206;47.032;15.484;2023-08-01T07:35:05;22.20;99.90
41469;DHT22;27206;47.032;15.484;2023-08-01T07:37:33;22.60;99.90
41469;DHT22;27206;47.032;15.484;2023-08-01T07:39:59;22.70;99.90
41469;DHT22;27206;47.032;15.484;2023-08-01T07:42:24;22.60;99.90
41469;DHT22;27206;47.032;15.484;2023-08-01T07:44:50;22.70;99.90
41469;DHT22;27206;47.032;15.484;2023-08-01T07:47:16;22.70;99.90
41469;DHT22;27206;47.032;15.484;2023-08-01T07:49:41;22.70;99.90
41469;DHT22;27206;47.032;15.484;2023-08-01T07:52:07;22.90;99.90
41469;DHT22;27206;47.032;15.484;2023-08-01T07:54:33;22.80;99.90
41469;DHT22;27206;47.032;15.484;2023-08-01T07:56:58;22.90;99.90
41469;DHT22;27206;47.032;15.484;2023-08-01T07:59:24;23.10;99.90
41469;DHT22;27206;47.032;15.484;2023-08-01T08:01:50;23.00;99.90
41469;DHT22;27206;47.032;15.484;2023-08-01T08:04:15;23.00;99.90
41469;DHT22;27206;47.032;15.484;2023-08-01T08:06:41;23.00;99.90
41469;DHT22;27206;47.032;15.484;2023-08-01T08:09:07;23.20;99.90
41469;DHT22;27206;47.032;15.484;2023-08-01T08:11:32;23.10;99.90
41469;DHT22;27206;47.032;15.484;2023-08-01T08:13:59;23.10;99.90
41469;DHT22;27206;47.032;15.484;2023-08-01T08:16:25;23.00;99.90
41469;DHT22;27206;47.032;15.484;2023-08-01T08:18:51;23.20;99.90
41469;DHT22;27206;47.032;15.484;2023-08-01T08:21:16;23.30;99.90
41469;DHT22;27206;47.032;15.484;2023-08-01T08:23:43;23.20;99.90
41469;DHT22;27206;47.032;15.484;2023-08-01T08:26:09;23.30;99.90
41469;DHT22;27206;47.032;15.484;2023-08-01T08:28:34;23.40;99.90
41469;DHT22;27206;47.032;15.484;2023-08-01T08:31:01;23.50;99.90
41469;DHT22;27206;47.032;15.484;2023-08-01T08:33:28;23.20;99.90
41469;DHT22;27206;47.032;15.484;2023-08-01T08:35:54;23.20;99.90
41469;DHT22;27206;47.032;15.484;2023-08-01T08:38:20;23.10;99.90
41469;DHT22;27206;47.032;15.484;2023-08-01T08:40:59;23.40;99.90
41469;DHT22;27206;47.032;15.484;2023-08-01T08:43:27;23.60;99.90
41469;DHT22;27206;47.032;15.484;2023-08-01T08:45:56;23.50;99.90
41469;DHT22;27206;47.032;15.484;2023-08-01T08:48:22;23.70;99.90
41469;DHT22;27206;47.032;15.484;2023-08-01T08:50:50;23.80;99.90
41469;DHT22;27206;47.032;15.484;2023-08-01T08:53:16;24.00;99.90
41469;DHT22;27206;47.032;15.484;2023-08-01T08:55:42;23.80;99.90
41469;DHT22;27206;47.032;15.484;2023-08-01T08:58:08;23.90;99.90
41469;DHT22;27206;47.032;15.484;2023-08-01T09:00:37;24.10;99.90
41469;DHT22;27206;47.032;15.484;2023-08-01T09:03:04;24.20;99.90
41469;DHT22;27206;47.032;15.484;2023-08-01T09:05:33;24.40;99.90
41469;DHT22;27206;47.032;15.484;2023-08-01T09:08:02;24.60;99.90
41469;DHT22;27206;47.032;15.484;2023-08-01T09:10:31;24.60;99.90
41469;DHT22;27206;47.032;15.484;2023-08-01T09:12:57;24.50;99.90
41469;DHT22;27206;47.032;15.484;2023-08-01T09:15:25;24.50;99.90
41469;DHT22;27206;47.032;15.484;2023-08-01T09:17:51;24.60;99.90
41469;DHT22;27206;47.032;15.484;2023-08-01T09:20:17;24.90;99.90
41469;DHT22;27206;47.032;15.484;2023-08-01T09:22:46;25.00;99.90
41469;DHT22;27206;47.032;15.484;2023-08-01T09:25:13;25.10;99.90
41469;DHT22;27206;47.032;15.484;2023-08-01T09:27:39;25.20;99.90
41469;DHT22;27206;47.032;15.484;2023-08-01T09:32:33;25.50;99.90
41469;DHT22;27206;47.032;15.484;2023-08-01T09:34:59;25.30;99.90
41469;DHT22;27206;47.032;15.484;2023-08-01T09:37:41;25.50;99.90
41469;DHT22;27206;47.032;15.484;2023-08-01T09:40:10;25.30;99.90
41469;DHT22;27206;47.032;15.484;2023-08-01T09:42:43;25.20;99.90
41469;DHT22;27206;47.032;15.484;2023-08-01T09:45:17;25.00;99.90
41469;DHT22;27206;47.032;15.484;2023-08-01T09:47:44;25.20;99.90
41469;DHT22;27206;47.032;15.484;2023-08-01T09:50:10;25.00;99.90
41469;DHT22;27206;47.032;15.484;2023-08-01T09:52:37;25.10;99.90
41469;DHT22;27206;47.032;15.484;2023-08-01T09:55:03;25.10;99.90
41469;DHT22;27206;47.032;15.484;2023-08-01T09:57:32;24.80;99.90
41469;DHT22;27206;47.032;15.484;2023-08-01T09:59:58;24.60;99.90
41469;DHT22;27206;47.032;15.484;2023-08-01T10:02:26;24.70;99.90
41469;DHT22;27206;47.032;15.484;2023-08-01T10:04:54;24.70;99.90
41469;DHT22;27206;47.032;15.484;2023-08-01T10:07:24;24.40;99.90
41469;DHT22;27206;47.032;15.484;2023-08-01T10:09:57;24.50;99.90
41469;DHT22;27206;47.032;15.484;2023-08-01T10:12:24;24.20;99.90
41469;DHT22;27206;47.032;15.484;2023-08-01T10:14:51;24.20;99.90
41469;DHT22;27206;47.032;15.484;2023-08-01T10:17:18;24.20;99.90
41469;DHT22;27206;47.032;15.484;2023-08-01T10:19:44;24.20;99.90
41469;DHT22;27206;47.032;15.484;2023-08-01T10:22:11;24.20;99.90
41469;DHT22;27206;47.032;15.484;2023-08-01T10:24:37;24.30;99.90
41469;DHT22;27206;47.032;15.484;2023-08-01T10:27:20;24.40;99.90
41469;DHT22;27206;47.032;15.484;2023-08-01T10:29:55;24.40;99.90
41469;DHT22;27206;47.032;15.484;2023-08-01T10:32:38;24.30;99.90
41469;DHT22;27206;47.032;15.484;2023-08-01T10:35:04;24.20;99.90
41469;DHT22;27206;47.032;15.484;2023-08-01T10:40:06;24.00;99.90
41469;DHT22;27206;47.032;15.484;2023-08-01T10:42:43;23.90;99.90
41469;DHT22;27206;47.032;15.484;2023-08-01T10:45:24;23.90;99.90
41469;DHT22;27206;47.032;15.484;2023-08-01T10:47:51;23.90;99.90
41469;DHT22;27206;47.032;15.484;2023-08-01T10:50:17;23.90;99.90
41469;DHT22;27206;47.032;15.484;2023-08-01T10:52:43;24.00;99.90
41469;DHT22;27206;47.032;15.484;2023-08-01T10:55:10;24.10;99.90
41469;DHT22;27206;47.032;15.484;2023-08-01T10:57:47;23.90;99.90
41469;DHT22;27206;47.032;15.484;2023-08-01T11:00:16;23.80;99.90
41469;DHT22;27206;47.032;15.484;2023-08-01T11:02:51;23.70;99.90
41469;DHT22;27206;47.032;15.484;2023-08-01T11:05:17;23.60;99.90
41469;DHT22;27206;47.032;15.484;2023-08-01T11:07:56;23.50;99.90
41469;DHT22;27206;47.032;15.484;2023-08-01T11:10:25;23.30;99.90
41469;DHT22;27206;47.032;15.484;2023-08-01T11:12:51;23.30;99.90
41469;DHT22;27206;47.032;15.484;2023-08-01T11:15:16;23.20;99.90
41469;DHT22;27206;47.032;15.484;2023-08-01T11:17:47;23.20;99.90
41469;DHT22;27206;47.032;15.484;2023-08-01T11:20:13;23.20;99.90
41469;DHT22;27206;47.032;15.484;2023-08-01T11:25:15;22.80;99.90
41469;DHT22;27206;47.032;15.484;2023-08-01T11:27:40;22.80;99.90
41469;DHT22;27206;47.032;15.484;2023-08-01T11:30:07;22.70;99.90
41469;DHT22;27206;47.032;15.484;2023-08-01T11:32:36;22.80;99.90
41469;DHT22;27206;47.032;15.484;2023-08-01T11:35:03;22.90;99.90
41469;DHT22;27206;47.032;15.484;2023-08-01T11:37:29;23.00;99.90
41469;DHT22;27206;47.032;15.484;2023-08-01T11:39:55;23.00;99.90
41469;DHT22;27206;47.032;15.484;2023-08-01T11:42:22;22.90;99.90
41469;DHT22;27206;47.032;15.484;2023-08-01T11:44:47;23.00;99.90
41469;DHT22;27206;47.032;15.484;2023-08-01T11:47:14;23.00;99.90
41469;DHT22;27206;47.032;15.484;2023-08-01T11:49:48;23.10;99.90
41469;DHT22;27206;47.032;15.484;2023-08-01T11:52:28;23.20;99.90
41469;DHT22;27206;47.032;15.484;2023-08-01T11:54:54;23.20;99.90
41469;DHT22;27206;47.032;15.484;2023-08-01T11:57:23;23.20;99.90
41469;DHT22;27206;47.032;15.484;2023-08-01T11:59:51;23.40;99.90
41469;DHT22;27206;47.032;15.484;2023-08-01T12:02:28;23.50;99.90
41469;DHT22;27206;47.032;15.484;2023-08-01T12:04:55;23.50;99.90
41469;DHT22;27206;47.032;15.484;2023-08-01T12:07:21;23.40;99.90
41469;DHT22;27206;47.032;15.484;2023-08-01T12:09:59;23.50;99.90
41469;DHT22;27206;47.032;15.484;2023-08-01T12:12:29;23.50;99.90
41469;DHT22;27206;47.032;15.484;2023-08-01T12:14:55;23.40;99.90
41469;DHT22;27206;47.032;15.484;2023-08-01T12:17:22;23.30;99.90
41469;DHT22;27206;47.032;15.484;2023-08-01T12:19:47;23.10;99.90
41469;DHT22;27206;47.032;15.484;2023-08-01T12:22:13;23.10;99.90
41469;DHT22;27206;47.032;15.484;2023-08-01T12:24:40;23.20;99.90
41469;DHT22;27206;47.032;15.484;2023-08-01T12:27:07;23.10;99.90
41469;DHT22;27206;47.032;15.484;2023-08-01T12:29:33;22.90;99.90
41469;DHT22;27206;47.032;15.484;2023-08-01T12:31:59;22.80;99.90
41469;DHT22;27206;47.032;15.484;2023-08-01T12:34:25;22.70;99.90
41469;DHT22;27206;47.032;15.484;2023-08-01T12:36:50;22.60;99.90
41469;DHT22;27206;47.032;15.484;2023-08-01T12:39:16;22.40;99.90
41469;DHT22;27206;47.032;15.484;2023-08-01T12:41:41;22.30;99.90
41469;DHT22;27206;47.032;15.484;2023-08-01T12:44:07;22.20;99.90
41469;DHT22;27206;47.032;15.484;2023-08-01T12:46:33;22.20;99.90
41469;DHT22;27206;47.032;15.484;2023-08-01T12:48:58;22.00;99.90
41469;DHT22;27206;47.032;15.484;2023-08-01T12:51:24;22.00;99.90
41469;DHT22;27206;47.032;15.484;2023-08-01T12:53:50;21.90;99.90
41469;DHT22;27206;47.032;15.484;2023-08-01T12:56:15;21.80;99.90
41469;DHT22;27206;47.032;15.484;2023-08-01T12:58:41;21.80;99.90
41469;DHT22;27206;47.032;15.484;2023-08-01T13:01:07;20.80;99.90
41469;DHT22;27206;47.032;15.484;2023-08-01T13:03:33;19.90;99.90
41469;DHT22;27206;47.032;15.484;2023-08-01T13:05:58;19.40;99.90
41469;DHT22;27206;47.032;15.484;2023-08-01T13:08:24;19.30;99.90
41469;DHT22;27206;47.032;15.484;2023-08-01T13:10:50;19.00;99.90
41469;DHT22;27206;47.032;15.484;2023-08-01T13:13:16;18.70;99.90
41469;DHT22;27206;47.032;15.484;2023-08-01T13:15:42;18.50;99.90
41469;DHT22;27206;47.032;15.484;2023-08-01T13:18:09;18.40;99.90
41469;DHT22;27206;47.032;15.484;2023-08-01T13:20:35;18.60;99.90
41469;DHT22;27206;47.032;15.484;2023-08-01T13:23:02;18.40;99.90
41469;DHT22;27206;47.032;15.484;2023-08-01T13:25:29;18.10;99.90
41469;DHT22;27206;47.032;15.484;2023-08-01T13:27:54;18.00;99.90
41469;DHT22;27206;47.032;15.484;2023-08-01T13:30:20;18.00;99.90
41469;DHT22;27206;47.032;15.484;2023-08-01T13:32:46;17.90;99.90
41469;DHT22;27206;47.032;15.484;2023-08-01T13:35:12;17.90;99.90
41469;DHT22;27206;47.032;15.484;2023-08-01T13:37:38;17.90;99.90
41469;DHT22;27206;47.032;15.484;2023-08-01T13:40:04;17.80;99.90
41469;DHT22;27206;47.032;15.484;2023-08-01T13:42:30;17.70;99.90
41469;DHT22;27206;47.032;15.484;2023-08-01T13:44:56;17.50;99.90
41469;DHT22;27206;47.032;15.484;2023-08-01T13:47:22;17.60;99.90
41469;DHT22;27206;47.032;15.484;2023-08-01T13:49:47;17.60;99.90
41469;DHT22;27206;47.032;15.484;2023-08-01T13:52:13;17.70;99.90
41469;DHT22;27206;47.032;15.484;2023-08-01T13:54:39;17.80;99.90
41469;DHT22;27206;47.032;15.484;2023-08-01T13:57:05;17.70;99.90
41469;DHT22;27206;47.032;15.484;2023-08-01T13:59:31;17.70;99.90
41469;DHT22;27206;47.032;15.484;2023-08-01T14:01:57;17.70;99.90
41469;DHT22;27206;47.032;15.484;2023-08-01T14:04:22;17.50;99.90
41469;DHT22;27206;47.032;15.484;2023-08-01T14:06:48;17.50;99.90
41469;DHT22;27206;47.032;15.484;2023-08-01T14:09:14;17.60;99.90
41469;DHT22;27206;47.032;15.484;2023-08-01T14:11:39;17.50;99.90
41469;DHT22;27206;47.032;15.484;2023-08-01T14:14:05;17.50;99.90
41469;DHT22;27206;47.032;15.484;2023-08-01T14:16:31;17.40;99.90
41469;DHT22;27206;47.032;15.484;2023-08-01T14:18:58;17.30;99.90
41469;DHT22;27206;47.032;15.484;2023-08-01T14:21:23;17.20;99.90
41469;DHT22;27206;47.032;15.484;2023-08-01T14:23:49;17.20;99.90
41469;DHT22;27206;47.032;15.484;2023-08-01T14:26:15;17.30;99.90
41469;DHT22;27206;47.032;15.484;2023-08-01T14:28:40;17.30;99.90
41469;DHT22;27206;47.032;15.484;2023-08-01T14:31:06;17.30;99.90
41469;DHT22;27206;47.032;15.484;2023-08-01T14:33:33;17.40;99.90
41469;DHT22;27206;47.032;15.484;2023-08-01T14:35:59;17.30;99.90
41469;DHT22;27206;47.032;15.484;2023-08-01T14:38:24;17.40;99.90
41469;DHT22;27206;47.032;15.484;2023-08-01T14:40:52;17.40;99.90
41469;DHT22;27206;47.032;15.484;2023-08-01T14:43:17;17.20;99.90
41469;DHT22;27206;47.032;15.484;2023-08-01T14:45:43;17.20;99.90
41469;DHT22;27206;47.032;15.484;2023-08-01T14:48:08;17.20;99.90
41469;DHT22;27206;47.032;15.484;2023-08-01T14:50:34;17.20;99.90
41469;DHT22;27206;47.032;15.484;2023-08-01T14:53:01;17.20;99.90
41469;DHT22;27206;47.032;15.484;2023-08-01T14:55:32;17.30;99.90
41469;DHT22;27206;47.032;15.484;2023-08-01T14:57:57;17.20;99.90
41469;DHT22;27206;47.032;15.484;2023-08-01T15:00:23;17.50;99.90
41469;DHT22;27206;47.032;15.484;2023-08-01T15:02:49;17.60;99.90
41469;DHT22;27206;47.032;15.484;2023-08-01T15:05:14;17.50;99.90
41469;DHT22;27206;47.032;15.484;2023-08-01T15:07:40;17.40;99.90
41469;DHT22;27206;47.032;15.484;2023-08-01T15:10:06;17.30;99.90
41469;DHT22;27206;47.032;15.484;2023-08-01T15:12:32;17.30;99.90
41469;DHT22;27206;47.032;15.484;2023-08-01T15:14:57;17.30;99.90
41469;DHT22;27206;47.032;15.484;2023-08-01T15:17:23;17.30;99.90
41469;DHT22;27206;47.032;15.484;2023-08-01T15:19:50;17.30;99.90